首页
METAR-TAF:

METAR-TAF

机场 :

金奈国际机场

金奈, 印度

纬度: 13-00N, 经度: 080-11E, 海拔: 10米

当前天气观测

该预报发布于13分钟前的10:00 UTC
风速11节,风向西转西南
温度 36°C
湿度 57%
气压 1001 hPa
能見度: 6000
少量云层高于2000英尺
散云层高于10000英尺

METAR: VOMM 211000Z 25011KT 6000 FEW020 SCT100 36/26 Q1001 NOSIG

时间: 15:43 (10:13 UTC)

预报

该预报发布于5小时和13分钟前的05:00 UTC
预报有效从21日的 06点(UTC)到 22日的 12点(UTC)
风速10节,风向西,有时为20节阵风
能見度: 6000
少量云层高于2000英尺
散云层高于10000英尺
成为
从 21日的 12点(UTC)到 21日的 13点(UTC)
风速10节,风向
能見度: 5000
成为
从 21日的 15点(UTC)到 21日的 16点(UTC)
风速10节,风向西
几率 40% :
短暂存在
从 21日的 15点(UTC)到 21日的 21点(UTC)
能見度: 2000
散云层高于1500英尺
少量云层高于2500英尺, 积雨云.
多云层高于8000英尺
成为
从 21日的 21点(UTC)到 21日的 22点(UTC)
能見度: 3000
成为
从 22日的 00点(UTC)到 22日的 01点(UTC)
能見度: 5000
成为
从 22日的 06点(UTC)到 22日的 07点(UTC)
风速10节,风向西,有时为20节阵风
能見度: 6000

TAF: VOMM 210500Z 2106/2212 27010G20KT 6000 FEW020 SCT100 BECMG 2112/2113 18010KT 5000 -DZ/HZ BECMG 2115/2116 27010KT PROB40 TEMPO 2115/2121 2000 TSRA/RA SCT015 FEW025CB BKN080 BECMG 2121/2122 3000 -RA/BR BECMG 2200/2201 5000 -DZ/HZ BECMG 2206/2207 27010G20KT 6000

超过4000个机场的气象观测和天气预报(METAR&TAF报告)。

可查询的气象台以黄色和红色小点在地图上表示。

将鼠标移到小点上方,可查看气象台名称。

然后点击查看天气观测和预报。

如需切换地图:点击带黑十字的绿色按钮放大地图;点击带横线的绿色按钮缩小地图;或者点击绿色箭头查看邻近地区的地图。


METAR-TAF: